< < Back
Terminal Aerodrome Forecast


Current Version              Previous Versions:   1  2  3  4  5  6  7  8  9  

Terminal Aerodrome Forecast

734
FTUS44 KBMX 172300
TAFTCL
TAF
KTCL 172325Z 1800/1824 11006KT P6SM BKN050 OVC120
     FM180800 08007KT P6SM VCSH OVC040=



Latest METAR

806
SAUS70 KWBC 181300 RRK
MTRTCL
METAR KTCL 181253Z AUTO 04007KT 6SM -RA OVC016 14/11 A3025 RMK AO2
RAB1154 SLP241 P0000 T01390111


USA.gov is the U.S. government's official web portal to all federal, state and local government web resources and services.